Cotton Center, TX (79021)

11:53 PM CDT on September 02, 2014 (GMT -0500)
WT_Meso Olton 6S | Change Station
CLOSE
Current Station
Personal Weather Station
Location: Olton, TX
Elevation: 3565 ft
Nearby Weather Stations

Elev 3565 ft 34.09 °N, 102.12 °W | Updated 28 minutes ago

Clear
Clear
80 °F
Feels Like 81 °F
N
17
Wind Variable Wind from SSE
Gusts 21.0 mph

Today
High -- | Low -- °F
--% Chance of Precip.
Yesterday
High -- | Low -- °F
Precip. -- in
7:22 AM 8:12 PM
First Quarter, 58% visible
Pressure 29.97 in
Visibility 10.0 miles
Clouds Clear
Heat Index 81 °F
Dew Point 58 °F
Humidity 48%
Rainfall -999.00 in
Snow Depth Not available.
UV 0 out of 12
Pollen 10.40 out of 12
Air Quality Not available.
Flu Activity Not available.
METAR KPVW 030435Z AUTO 17012G17KT 10SM CLR 27/16 A2997 RMK AO2 T02670163

More Conditions Fewer Conditions

Pressure 29.97 in
Visibility 10.0 miles
Clouds Clear
Heat Index 81 °F
Dew Point 58 °F
Humidity 48%
Rainfall -999.00 in
Snow Depth Not available.
UV 0 out of 12
Pollen 10.40 out of 12
Air Quality Not available.
Flu Activity Not available.
METAR KPVW 030435Z AUTO 17012G17KT 10SM CLR 27/16 A2997 RMK AO2 T02670163

More Conditions Fewer Conditions

10-Day Weather Forecast

Almanac

Astronomy

Sep. 02, 2014 Rise Set
Actual Time 7:22 AM CDT 8:12 PM CDT
Civil Twilight 6:56 AM CDT 8:37 PM CDT
Nautical Twilight 6:26 AM CDT 9:07 PM CDT
Astronomical Twilight 5:55 AM CDT 9:38 PM CDT
Moon 2:49 PM CDT (9/2) 12:34 AM CDT (9/2)
Length of Visible Light 13h 41m
Length of Day
12h 50m
Tomorrow will be 2m 3s shorter.
First Quarter, 58% of the Moon is Illuminated
Sep 3
First Quarter
Sep 8
Full
Sep 15
Last Quarter
Sep 24
New
Oct 1
First Quarter

Yesterday's Extremes

State Highs State Lows

Community

WunderPhotos

Upload Photos

1,749,875 photos uploaded!

Nearby

Snow Depth

Station Depth Elevation
No new snow has been reported.

Earthquake Activity

City Distance Mag. Time & Date
No recent earthquake activity has been reported nearby.
Minimum magnitude displayed is 2.5.

Coastal Water Temperatures

Place Temperature
No Stations Reporting

Nearby Weather Stations